Time;durP1;ratioP1;P1;durP2;ratioP2;P2;SDS_P1;SDS_P2;PMS_P1;PMS_P2;Temp;Humidity;BMP_temperature;BMP_pressure;BME280_temperature;BME280_humidity;BME280_pressure;Samples;Min_cycle;Max_cycle;Signal;HPM_P1;HPM_P2
2023/06/08 00:01:40;;;;;;;7.90;4.32;;;;;;;;;;5045703;28;42059;-24
2023/06/08 00:04:08;;;;;;;8.20;4.95;;;;;;;;;;5044507;28;43296;-25
2023/06/08 00:06:37;;;;;;;5.93;4.50;;;;;;;;;;5045458;28;40968;-24
2023/06/08 00:09:05;;;;;;;8.93;5.00;;;;;;;;;;5045272;28;43981;-24
2023/06/08 00:11:33;;;;;;;8.77;4.75;;;;;;;;;;5035665;28;40027;-25
2023/06/08 00:14:01;;;;;;;6.40;4.28;;;;;;;;;;5026202;28;41499;-24
2023/06/08 00:16:30;;;;;;;9.88;4.90;;;;;;;;;;5044459;28;42923;-24
2023/06/08 00:18:58;;;;;;;8.20;4.75;;;;;;;;;;5045398;28;41734;-24
2023/06/08 00:21:29;;;;;;;10.48;4.63;;;;;;;;;;5027437;28;42308;-25
2023/06/08 00:23:57;;;;;;;5.85;3.80;;;;;;;;;;5045610;28;43136;-25
2023/06/08 00:26:25;;;;;;;8.25;4.65;;;;;;;;;;5045296;28;41101;-24
2023/06/08 00:28:53;;;;;;;7.43;4.50;;;;;;;;;;5039984;28;42190;-24
2023/06/08 00:31:21;;;;;;;8.77;4.70;;;;;;;;;;5039228;28;40407;-24
2023/06/08 00:33:50;;;;;;;6.90;4.47;;;;;;;;;;5027530;28;42488;-24
2023/06/08 00:36:19;;;;;;;8.35;4.35;;;;;;;;;;5030577;28;43546;-23
2023/06/08 00:38:47;;;;;;;6.75;4.65;;;;;;;;;;5046350;28;40661;-26
2023/06/08 00:41:15;;;;;;;7.70;4.75;;;;;;;;;;5046558;28;42356;-26
2023/06/08 00:43:44;;;;;;;10.15;4.80;;;;;;;;;;5047873;28;44443;-24
2023/06/08 00:46:12;;;;;;;8.05;4.80;;;;;;;;;;5038299;28;41437;-30
2023/06/08 00:48:41;;;;;;;6.10;4.38;;;;;;;;;;5032197;28;43693;-25
2023/06/08 00:51:11;;;;;;;8.60;4.55;;;;;;;;;;5046487;28;41282;-24
2023/06/08 00:53:40;;;;;;;8.75;5.05;;;;;;;;;;5048087;28;42487;-24
2023/06/08 00:56:08;;;;;;;10.25;4.63;;;;;;;;;;5045130;28;43438;-26
2023/06/08 00:58:37;;;;;;;10.93;5.13;;;;;;;;;;5046646;28;40809;-24
2023/06/08 01:01:12;;;;;;;10.00;4.70;;;;;;;;;;5029061;28;41495;-25
2023/06/08 01:03:42;;;;;;;8.73;4.75;;;;;;;;;;5028860;28;43127;-24
2023/06/08 01:06:13;;;;;;;9.80;4.60;;;;;;;;;;5044219;28;40397;-26
2023/06/08 01:08:43;;;;;;;7.97;4.35;;;;;;;;;;5046800;28;42564;-24
2023/06/08 01:11:16;;;;;;;7.63;4.60;;;;;;;;;;5031643;28;44389;-24
2023/06/08 01:13:46;;;;;;;10.30;4.82;;;;;;;;;;5029034;28;41649;-24
2023/06/08 01:16:14;;;;;;;9.95;4.93;;;;;;;;;;5041364;28;43771;-24
2023/06/08 01:18:42;;;;;;;7.93;4.30;;;;;;;;;;5042520;28;40547;-25
2023/06/08 01:21:24;;;;;;;6.90;4.47;;;;;;;;;;5014894;28;41829;-24
2023/06/08 01:24:10;;;;;;;7.30;4.38;;;;;;;;;;5024421;28;41964;-24
2023/06/08 01:26:40;;;;;;;6.70;4.32;;;;;;;;;;5013613;28;39616;-24
2023/06/08 01:29:11;;;;;;;6.88;4.60;;;;;;;;;;5019918;28;42116;-24
2023/06/08 01:31:39;;;;;;;9.25;5.25;;;;;;;;;;5026228;28;41619;-25
2023/06/08 01:34:07;;;;;;;7.18;4.53;;;;;;;;;;5026685;28;39395;-25
2023/06/08 01:36:40;;;;;;;7.32;4.20;;;;;;;;;;5043570;28;44369;-26
2023/06/08 01:39:11;;;;;;;6.05;4.25;;;;;;;;;;5028281;28;39425;-25
2023/06/08 01:41:40;;;;;;;7.65;4.68;;;;;;;;;;5042552;28;43391;-25
2023/06/08 01:44:08;;;;;;;8.13;4.72;;;;;;;;;;5046577;28;43424;-23
2023/06/08 01:46:36;;;;;;;7.57;4.47;;;;;;;;;;5015924;28;40415;-26
2023/06/08 01:49:04;;;;;;;6.60;4.38;;;;;;;;;;5028758;28;42333;-30
2023/06/08 01:51:32;;;;;;;7.35;4.65;;;;;;;;;;5020697;28;42221;-28
2023/06/08 01:54:00;;;;;;;6.68;4.10;;;;;;;;;;5046803;28;40455;-24
2023/06/08 01:56:30;;;;;;;6.65;4.13;;;;;;;;;;5035094;28;42864;-25
2023/06/08 01:58:58;;;;;;;6.00;3.75;;;;;;;;;;5023369;28;40035;-24
2023/06/08 02:01:26;;;;;;;8.43;4.82;;;;;;;;;;5019083;28;41385;-24
2023/06/08 02:03:54;;;;;;;9.23;4.60;;;;;;;;;;5047349;28;43224;-25
2023/06/08 02:06:22;;;;;;;7.72;4.05;;;;;;;;;;5036923;28;41103;-23
2023/06/08 02:08:50;;;;;;;7.65;4.82;;;;;;;;;;5027161;28;43717;-25
2023/06/08 02:11:18;;;;;;;6.05;4.55;;;;;;;;;;5024710;28;43112;-24
2023/06/08 02:13:47;;;;;;;9.05;4.32;;;;;;;;;;5034853;28;40361;-25
2023/06/08 02:16:18;;;;;;;6.13;4.20;;;;;;;;;;5008520;28;42191;-25
2023/06/08 02:18:46;;;;;;;5.78;4.30;;;;;;;;;;5009137;28;42181;-27
2023/06/08 02:21:14;;;;;;;8.30;4.78;;;;;;;;;;5026926;28;42782;-24
2023/06/08 02:23:43;;;;;;;10.50;5.03;;;;;;;;;;5046798;28;42910;-24
2023/06/08 02:26:12;;;;;;;7.55;4.20;;;;;;;;;;5028019;28;40177;-24
2023/06/08 02:28:42;;;;;;;7.80;4.57;;;;;;;;;;5027770;28;42643;-24
2023/06/08 02:31:11;;;;;;;7.00;4.45;;;;;;;;;;5028366;28;43377;-24
2023/06/08 02:33:39;;;;;;;9.15;4.53;;;;;;;;;;5026061;28;40754;-24
2023/06/08 02:36:09;;;;;;;8.13;4.60;;;;;;;;;;5040818;28;43048;-27
2023/06/08 02:38:38;;;;;;;5.88;4.40;;;;;;;;;;5014464;28;42977;-26
2023/06/08 02:41:07;;;;;;;9.20;4.20;;;;;;;;;;5028237;28;40132;-27
2023/06/08 02:43:39;;;;;;;7.47;4.22;;;;;;;;;;5019610;28;41627;-27
2023/06/08 02:46:08;;;;;;;8.45;4.53;;;;;;;;;;5025714;28;39157;-27
2023/06/08 02:48:37;;;;;;;5.85;3.97;;;;;;;;;;5026759;28;42458;-24
2023/06/08 02:51:05;;;;;;;8.43;4.43;;;;;;;;;;5035944;28;43345;-24
2023/06/08 02:53:35;;;;;;;8.93;4.80;;;;;;;;;;5026111;28;40333;-25
2023/06/08 02:56:03;;;;;;;7.90;4.15;;;;;;;;;;5037755;28;43177;-25
2023/06/08 02:58:33;;;;;;;8.13;4.40;;;;;;;;;;5017242;28;42077;-24
2023/06/08 03:01:01;;;;;;;7.65;4.38;;;;;;;;;;5025871;28;38535;-24
2023/06/08 03:03:42;;;;;;;5.97;4.22;;;;;;;;;;5022089;28;42909;-24
2023/06/08 03:06:17;;;;;;;7.40;5.07;;;;;;;;;;5018195;28;39217;-24
2023/06/08 03:08:53;;;;;;;8.05;4.32;;;;;;;;;;5014663;28;42225;-24
2023/06/08 03:11:22;;;;;;;8.70;4.45;;;;;;;;;;5026336;28;42000;-24
2023/06/08 03:13:51;;;;;;;8.82;4.55;;;;;;;;;;5027522;28;39799;-24
2023/06/08 03:16:22;;;;;;;9.05;4.80;;;;;;;;;;5013962;28;41944;-26
2023/06/08 03:18:52;;;;;;;7.57;4.20;;;;;;;;;;5021135;28;43575;-24
2023/06/08 03:21:20;;;;;;;7.20;4.47;;;;;;;;;;5009205;28;39264;-24
2023/06/08 03:23:50;;;;;;;7.28;4.43;;;;;;;;;;5027584;28;40941;-25
2023/06/08 03:26:21;;;;;;;6.72;4.20;;;;;;;;;;5026069;28;39158;-24
2023/06/08 03:28:49;;;;;;;6.93;4.30;;;;;;;;;;5023356;28;41769;-24
2023/06/08 03:31:20;;;;;;;8.57;4.45;;;;;;;;;;5038965;28;41995;-26
2023/06/08 03:33:51;;;;;;;6.78;4.18;;;;;;;;;;5024995;28;40367;-24
2023/06/08 03:36:20;;;;;;;7.65;3.95;;;;;;;;;;5036735;28;42255;-24
2023/06/08 03:38:50;;;;;;;7.43;4.30;;;;;;;;;;5013310;28;42746;-25
2023/06/08 03:41:18;;;;;;;7.50;4.43;;;;;;;;;;5014752;28;39815;-25
2023/06/08 03:43:49;;;;;;;7.90;4.45;;;;;;;;;;5022856;28;41246;-25
2023/06/08 03:46:20;;;;;;;6.65;4.63;;;;;;;;;;5018636;28;43703;-25
2023/06/08 03:48:49;;;;;;;7.05;4.68;;;;;;;;;;5025638;28;42416;-24
2023/06/08 03:51:19;;;;;;;9.15;4.70;;;;;;;;;;5025427;28;42201;-27
2023/06/08 03:53:47;;;;;;;9.77;4.57;;;;;;;;;;5025662;28;38942;-25
2023/06/08 03:56:15;;;;;;;7.97;4.53;;;;;;;;;;5042865;28;42372;-27
2023/06/08 03:58:44;;;;;;;7.28;4.50;;;;;;;;;;5024921;28;43115;-25
2023/06/08 04:01:12;;;;;;;8.23;4.70;;;;;;;;;;5015258;28;39239;-24
2023/06/08 04:03:41;;;;;;;9.77;5.22;;;;;;;;;;5026851;28;41229;-25
2023/06/08 04:06:09;;;;;;;6.70;4.15;;;;;;;;;;5025882;28;43213;-25
2023/06/08 04:08:40;;;;;;;7.22;4.30;;;;;;;;;;5048024;28;40992;-24
2023/06/08 04:11:09;;;;;;;7.80;4.60;;;;;;;;;;5040464;28;42210;-26
2023/06/08 04:13:38;;;;;;;5.90;4.55;;;;;;;;;;5026466;28;39705;-24
2023/06/08 04:16:09;;;;;;;7.97;5.10;;;;;;;;;;5026553;28;41437;-26
2023/06/08 04:18:41;;;;;;;6.55;4.95;;;;;;;;;;5027227;28;43511;-25
2023/06/08 04:21:12;;;;;;;6.85;4.18;;;;;;;;;;5012106;28;39004;-36
2023/06/08 04:23:44;;;;;;;8.80;4.80;;;;;;;;;;5027444;28;41108;-39
2023/06/08 04:26:12;;;;;;;6.85;4.80;;;;;;;;;;5044516;28;42893;-37
2023/06/08 04:28:41;;;;;;;8.60;5.15;;;;;;;;;;5027368;28;40388;-39
2023/06/08 04:31:10;;;;;;;6.78;4.45;;;;;;;;;;5027210;28;41514;-42
2023/06/08 04:33:39;;;;;;;10.43;4.95;;;;;;;;;;5026002;28;39438;-40
2023/06/08 04:36:07;;;;;;;7.47;4.90;;;;;;;;;;5027214;28;42509;-38
2023/06/08 04:38:38;;;;;;;7.03;5.10;;;;;;;;;;5044152;28;43412;-40
2023/06/08 04:41:08;;;;;;;6.82;5.03;;;;;;;;;;5025829;28;40349;-38
2023/06/08 04:43:36;;;;;;;8.13;5.00;;;;;;;;;;5044080;28;42935;-41
2023/06/08 04:46:13;;;;;;;7.63;5.00;;;;;;;;;;5025877;28;43714;-39
2023/06/08 04:48:43;;;;;;;10.23;5.20;;;;;;;;;;5007587;28;38587;-36
2023/06/08 04:51:11;;;;;;;8.55;5.05;;;;;;;;;;5024596;28;43154;-38
2023/06/08 04:53:42;;;;;;;6.75;4.88;;;;;;;;;;5026179;28;34118;-40
2023/06/08 04:56:18;;;;;;;6.80;4.53;;;;;;;;;;5023654;28;43562;-39
2023/06/08 04:58:48;;;;;;;6.25;4.95;;;;;;;;;;5006572;28;42305;-39
2023/06/08 05:01:18;;;;;;;8.50;5.85;;;;;;;;;;5019198;28;39149;-38
2023/06/08 05:03:47;;;;;;;7.63;5.43;;;;;;;;;;5009633;28;42666;-40
2023/06/08 05:06:15;;;;;;;6.93;5.05;;;;;;;;;;5024202;28;43570;-42
2023/06/08 05:08:43;;;;;;;9.25;5.45;;;;;;;;;;5024368;28;40015;-42
2023/06/08 05:11:12;;;;;;;8.20;4.80;;;;;;;;;;5035870;28;42388;-39
2023/06/08 05:13:40;;;;;;;8.00;5.78;;;;;;;;;;5022529;28;43139;-38
2023/06/08 05:16:10;;;;;;;6.78;5.55;;;;;;;;;;5032242;28;43414;-37
2023/06/08 05:18:38;;;;;;;6.43;5.13;;;;;;;;;;5034211;28;44930;-39
2023/06/08 05:21:06;;;;;;;8.00;5.75;;;;;;;;;;5027674;28;40779;-41
2023/06/08 05:23:35;;;;;;;5.95;4.32;;;;;;;;;;5046145;28;42790;-38
2023/06/08 05:26:03;;;;;;;8.70;5.47;;;;;;;;;;5041344;28;43681;-38
2023/06/08 05:28:32;;;;;;;7.13;5.43;;;;;;;;;;5045339;28;41344;-39
2023/06/08 05:31:00;;;;;;;8.98;5.88;;;;;;;;;;5046618;28;42637;-42
2023/06/08 05:33:28;;;;;;;11.20;6.25;;;;;;;;;;5027444;28;42038;-41
2023/06/08 05:35:57;;;;;;;8.73;5.32;;;;;;;;;;5046802;28;40578;-41
2023/06/08 05:38:32;;;;;;;8.00;5.57;;;;;;;;;;5042934;28;43555;-39
2023/06/08 05:41:00;;;;;;;7.82;4.85;;;;;;;;;;5046274;28;39970;-40
2023/06/08 05:43:28;;;;;;;8.15;4.90;;;;;;;;;;5045964;28;42348;-39
2023/06/08 05:45:57;;;;;;;7.65;5.28;;;;;;;;;;5046919;28;44355;-41
2023/06/08 05:48:25;;;;;;;6.43;5.20;;;;;;;;;;5041113;28;39953;-37
2023/06/08 05:50:53;;;;;;;7.00;5.47;;;;;;;;;;5046697;28;43406;-41
2023/06/08 05:53:21;;;;;;;8.00;5.03;;;;;;;;;;5046473;28;43488;-39
2023/06/08 05:55:49;;;;;;;8.15;4.97;;;;;;;;;;5040933;28;40587;-37
2023/06/08 05:58:18;;;;;;;10.02;5.20;;;;;;;;;;5042749;28;43941;-39
2023/06/08 06:00:46;;;;;;;12.93;5.93;;;;;;;;;;5046932;28;40222;-38
2023/06/08 06:03:16;;;;;;;8.85;5.40;;;;;;;;;;5046914;28;42226;-42
2023/06/08 06:05:44;;;;;;;7.15;5.40;;;;;;;;;;5046685;28;44919;-41
2023/06/08 06:08:12;;;;;;;8.13;5.30;;;;;;;;;;5046745;28;41728;-42
2023/06/08 06:10:40;;;;;;;6.00;5.00;;;;;;;;;;5047414;28;42942;-39
2023/06/08 06:13:08;;;;;;;5.95;4.88;;;;;;;;;;5045891;28;43347;-39
2023/06/08 06:15:36;;;;;;;8.32;5.20;;;;;;;;;;5042069;28;39079;-40
2023/06/08 06:18:04;;;;;;;7.28;5.43;;;;;;;;;;5046270;28;42896;-38
2023/06/08 06:20:33;;;;;;;7.97;4.93;;;;;;;;;;5036597;28;44028;-37
2023/06/08 06:23:01;;;;;;;8.07;4.93;;;;;;;;;;5041454;28;43725;-38
2023/06/08 06:25:35;;;;;;;6.93;4.90;;;;;;;;;;5028179;28;43489;-39
2023/06/08 06:28:03;;;;;;;8.52;5.75;;;;;;;;;;5042038;28;40522;-39
2023/06/08 06:30:31;;;;;;;7.95;5.25;;;;;;;;;;5029661;28;43661;-38
2023/06/08 06:32:59;;;;;;;7.88;5.68;;;;;;;;;;5020942;28;41761;-38
2023/06/08 06:35:27;;;;;;;8.73;5.65;;;;;;;;;;5038927;28;39869;-38
2023/06/08 06:37:57;;;;;;;6.45;5.38;;;;;;;;;;5036138;28;43380;-35
2023/06/08 06:40:25;;;;;;;6.95;5.00;;;;;;;;;;5041737;28;43459;-40
2023/06/08 06:42:52;;;;;;;7.35;5.10;;;;;;;;;;5038671;28;41048;-40
2023/06/08 06:45:32;;;;;;;8.40;4.68;;;;;;;;;;5014377;28;41942;-41
2023/06/08 06:48:00;;;;;;;7.35;5.32;;;;;;;;;;5006484;28;39742;-39
2023/06/08 06:50:28;;;;;;;7.00;5.45;;;;;;;;;;5036331;28;43678;-41
2023/06/08 06:52:59;;;;;;;10.05;5.55;;;;;;;;;;5027752;28;43680;-41
2023/06/08 06:55:27;;;;;;;9.02;5.35;;;;;;;;;;5037686;28;40497;-41
2023/06/08 06:57:55;;;;;;;7.43;5.20;;;;;;;;;;5041300;28;42783;-39
2023/06/08 07:00:24;;;;;;;10.77;5.32;;;;;;;;;;5043529;28;43399;-42
2023/06/08 07:02:52;;;;;;;16.30;5.30;;;;;;;;;;5043549;28;40064;-41
2023/06/08 07:05:20;;;;;;;9.68;5.05;;;;;;;;;;5026626;28;43439;-41
2023/06/08 07:07:48;;;;;;;11.90;5.32;;;;;;;;;;5038501;28;40660;-35
2023/06/08 07:10:17;;;;;;;9.00;5.38;;;;;;;;;;5033705;28;42594;-41
2023/06/08 07:12:45;;;;;;;12.30;5.55;;;;;;;;;;5051427;28;43864;-24
2023/06/08 07:15:14;;;;;;;15.18;6.22;;;;;;;;;;5055161;28;39889;-26
2023/06/08 07:17:44;;;;;;;12.73;6.40;;;;;;;;;;5053950;28;42605;-27
2023/06/08 07:20:12;;;;;;;11.48;6.25;;;;;;;;;;5055042;28;43947;-25
2023/06/08 07:22:40;;;;;;;15.73;6.00;;;;;;;;;;5051669;28;41422;-24
2023/06/08 07:25:29;;;;;;;13.95;5.72;;;;;;;;;;5056761;28;42239;-25
2023/06/08 07:28:18;;;;;;;15.50;6.57;;;;;;;;;;5042259;28;40691;-25
2023/06/08 07:30:46;;;;;;;15.23;5.97;;;;;;;;;;5055636;28;43679;-26
2023/06/08 07:33:14;;;;;;;10.75;5.75;;;;;;;;;;5046533;28;43445;-25
2023/06/08 07:35:42;;;;;;;9.90;6.07;;;;;;;;;;5052585;28;40510;-25
2023/06/08 07:38:14;;;;;;;15.23;6.82;;;;;;;;;;5026499;28;42744;-26
2023/06/08 07:40:44;;;;;;;13.25;5.93;;;;;;;;;;5047981;28;43316;-25
2023/06/08 07:43:12;;;;;;;11.98;5.75;;;;;;;;;;5051004;28;40931;-27
2023/06/08 07:45:40;;;;;;;14.32;6.93;;;;;;;;;;5047941;28;43062;-26
2023/06/08 07:48:08;;;;;;;12.35;6.53;;;;;;;;;;5027301;28;43235;-25
2023/06/08 07:50:36;;;;;;;10.45;5.97;;;;;;;;;;5045994;28;42399;-30
2023/06/08 07:53:03;;;;;;;13.52;6.22;;;;;;;;;;5053944;28;45932;-25
2023/06/08 07:55:31;;;;;;;12.55;6.10;;;;;;;;;;5029524;28;39032;-26
2023/06/08 07:58:01;;;;;;;16.70;6.60;;;;;;;;;;5048640;28;43001;-25
2023/06/08 08:00:31;;;;;;;16.25;6.65;;;;;;;;;;5044458;28;43510;-24
2023/06/08 08:02:59;;;;;;;10.88;6.78;;;;;;;;;;5051975;28;40649;-24
2023/06/08 08:05:27;;;;;;;13.30;6.72;;;;;;;;;;5043873;28;42699;-24
2023/06/08 08:07:55;;;;;;;14.43;7.13;;;;;;;;;;5045926;28;43423;-24
2023/06/08 08:10:24;;;;;;;12.38;7.00;;;;;;;;;;5044350;28;40149;-25
2023/06/08 08:12:53;;;;;;;15.68;7.28;;;;;;;;;;5044534;28;43875;-24
2023/06/08 08:15:22;;;;;;;11.85;6.72;;;;;;;;;;5049348;28;40680;-25
2023/06/08 08:17:50;;;;;;;13.75;7.15;;;;;;;;;;5044389;28;43059;-24
2023/06/08 08:20:18;;;;;;;11.50;6.43;;;;;;;;;;5044117;28;44360;-25
2023/06/08 08:22:46;;;;;;;9.48;6.50;;;;;;;;;;5058891;28;41316;-24
2023/06/08 08:25:14;;;;;;;10.32;6.28;;;;;;;;;;5051086;28;42799;-24
2023/06/08 08:27:42;;;;;;;13.40;6.32;;;;;;;;;;5065086;28;44452;-24
2023/06/08 08:30:11;;;;;;;11.27;6.35;;;;;;;;;;5064772;28;41273;-24
2023/06/08 08:32:40;;;;;;;10.77;6.25;;;;;;;;;;5064877;28;43717;-24
2023/06/08 08:35:10;;;;;;;11.95;6.30;;;;;;;;;;5064504;28;40301;-24
2023/06/08 08:37:37;;;;;;;12.43;6.45;;;;;;;;;;5064958;28;42702;-24
2023/06/08 08:40:06;;;;;;;11.68;6.43;;;;;;;;;;5056176;28;43262;-40
2023/06/08 08:42:35;;;;;;;9.25;5.72;;;;;;;;;;5064571;28;41185;-41
2023/06/08 08:45:03;;;;;;;9.43;6.40;;;;;;;;;;5064622;28;43722;-41
2023/06/08 08:47:31;;;;;;;9.80;5.75;;;;;;;;;;5034678;28;42615;-38
2023/06/08 08:50:04;;;;;;;11.63;5.95;;;;;;;;;;5066592;28;41821;-35
2023/06/08 08:52:33;;;;;;;10.15;6.30;;;;;;;;;;5038227;28;41037;-36
2023/06/08 08:55:01;;;;;;;8.93;5.88;;;;;;;;;;5061868;28;43367;-39
2023/06/08 08:57:30;;;;;;;10.95;5.80;;;;;;;;;;5057042;28;44237;-35
2023/06/08 09:00:00;;;;;;;7.78;5.35;;;;;;;;;;5063073;28;43730;-38
2023/06/08 09:02:28;;;;;;;9.77;5.78;;;;;;;;;;5058388;28;41528;-38
2023/06/08 09:04:56;;;;;;;9.10;5.90;;;;;;;;;;5067136;28;42561;-39
2023/06/08 09:07:26;;;;;;;10.40;6.05;;;;;;;;;;5053642;28;44211;-40
2023/06/08 09:10:12;;;;;;;9.60;5.47;;;;;;;;;;5067266;28;40694;-37
2023/06/08 09:12:40;;;;;;;9.57;5.57;;;;;;;;;;5047240;28;42664;-39
2023/06/08 09:15:09;;;;;;;9.55;5.10;;;;;;;;;;5058723;28;44054;-36
2023/06/08 09:17:38;;;;;;;8.15;5.53;;;;;;;;;;5067088;28;42998;-37
2023/06/08 09:20:08;;;;;;;9.30;5.40;;;;;;;;;;5061880;28;43646;-38
2023/06/08 09:22:37;;;;;;;8.15;5.45;;;;;;;;;;5059559;28;39881;-41
2023/06/08 09:25:06;;;;;;;9.55;5.82;;;;;;;;;;5067437;28;43180;-39
2023/06/08 09:27:34;;;;;;;10.48;5.32;;;;;;;;;;5065859;28;44108;-39
2023/06/08 09:30:02;;;;;;;7.93;5.80;;;;;;;;;;5048744;28;39901;-38
2023/06/08 09:32:31;;;;;;;10.80;5.43;;;;;;;;;;5067300;28;42511;-37
2023/06/08 09:35:01;;;;;;;7.97;5.40;;;;;;;;;;5064178;28;44108;-39
2023/06/08 09:37:32;;;;;;;9.65;5.45;;;;;;;;;;5064673;28;40109;-38
2023/06/08 09:40:04;;;;;;;8.98;5.30;;;;;;;;;;5066939;28;43309;-38
2023/06/08 09:42:42;;;;;;;9.20;5.22;;;;;;;;;;5066238;28;40994;-36
2023/06/08 09:45:12;;;;;;;7.63;4.95;;;;;;;;;;5055603;28;43015;-40
2023/06/08 09:47:40;;;;;;;9.93;5.30;;;;;;;;;;5056096;28;44349;-38
2023/06/08 09:50:09;;;;;;;10.80;5.32;;;;;;;;;;5051594;28;40623;-35
2023/06/08 09:52:37;;;;;;;8.68;5.47;;;;;;;;;;5051700;28;42788;-39
2023/06/08 09:55:06;;;;;;;14.38;6.22;;;;;;;;;;5049972;28;44005;-39
2023/06/08 09:57:35;;;;;;;14.38;6.22;;;;;;;;;;5055039;28;40732;-39
2023/06/08 10:00:14;;;;;;;15.77;6.00;;;;;;;;;;5062769;28;42344;-39
2023/06/08 10:02:49;;;;;;;13.68;6.47;;;;;;;;;;5047510;28;41056;-38
2023/06/08 10:05:17;;;;;;;11.57;5.55;;;;;;;;;;5042354;28;43692;-37
2023/06/08 10:07:49;;;;;;;10.52;5.85;;;;;;;;;;5037922;28;42881;-39
2023/06/08 10:10:21;;;;;;;12.00;5.93;;;;;;;;;;5063076;28;40246;-40
2023/06/08 10:12:50;;;;;;;10.63;5.93;;;;;;;;;;5065696;28;42536;-38
2023/06/08 10:15:19;;;;;;;12.15;5.90;;;;;;;;;;5052736;28;43825;-38
2023/06/08 10:17:47;;;;;;;10.23;6.20;;;;;;;;;;5054674;28;42241;-38
2023/06/08 10:20:16;;;;;;;14.45;6.50;;;;;;;;;;5053059;28;42490;-33
2023/06/08 10:22:44;;;;;;;13.93;6.07;;;;;;;;;;5046522;28;43710;-39
2023/06/08 10:25:13;;;;;;;13.00;6.75;;;;;;;;;;5048398;28;42430;-41
2023/06/08 10:27:48;;;;;;;8.48;5.75;;;;;;;;;;5062963;28;43007;-38
2023/06/08 10:30:26;;;;;;;14.25;6.43;;;;;;;;;;5059868;28;40746;-36
2023/06/08 10:32:55;;;;;;;11.98;6.32;;;;;;;;;;5059626;28;43055;-38
2023/06/08 10:35:24;;;;;;;12.13;6.07;;;;;;;;;;5047431;28;43952;-41
2023/06/08 10:37:52;;;;;;;8.52;6.25;;;;;;;;;;5056196;28;41054;-38
2023/06/08 10:40:21;;;;;;;14.80;6.30;;;;;;;;;;5052869;28;43352;-37
2023/06/08 10:42:53;;;;;;;15.05;5.85;;;;;;;;;;5052637;28;43589;-41
2023/06/08 10:45:33;;;;;;;9.15;6.13;;;;;;;;;;5060450;28;41436;-38
2023/06/08 10:48:07;;;;;;;14.95;6.22;;;;;;;;;;5053624;28;43199;-40
2023/06/08 10:50:38;;;;;;;12.23;5.90;;;;;;;;;;5061002;28;41008;-37
2023/06/08 10:53:06;;;;;;;9.68;6.03;;;;;;;;;;5049735;28;42910;-38
2023/06/08 10:55:34;;;;;;;9.02;5.85;;;;;;;;;;5046349;28;43534;-38
2023/06/08 10:58:06;;;;;;;9.25;5.75;;;;;;;;;;5060241;28;40324;-39
2023/06/08 11:00:41;;;;;;;9.55;6.22;;;;;;;;;;5061675;28;42679;-36
2023/06/08 11:03:11;;;;;;;9.52;6.05;;;;;;;;;;5042082;28;43222;-38
2023/06/08 11:05:40;;;;;;;8.73;5.63;;;;;;;;;;5064919;28;41411;-38
2023/06/08 11:08:08;;;;;;;9.98;5.38;;;;;;;;;;5064588;28;42798;-40
2023/06/08 11:10:39;;;;;;;11.93;5.85;;;;;;;;;;5051106;28;40234;-40
2023/06/08 11:13:09;;;;;;;11.77;5.97;;;;;;;;;;5051411;28;42607;-37
2023/06/08 11:15:37;;;;;;;11.32;6.28;;;;;;;;;;5058088;28;43670;-38
2023/06/08 11:18:08;;;;;;;8.80;5.63;;;;;;;;;;5054069;28;41944;-39
2023/06/08 11:20:37;;;;;;;13.40;6.55;;;;;;;;;;5047596;28;43562;-41
2023/06/08 11:23:06;;;;;;;10.27;5.68;;;;;;;;;;5057594;28;43371;-41
2023/06/08 11:25:34;;;;;;;10.23;5.65;;;;;;;;;;5053280;28;40675;-38
2023/06/08 11:28:02;;;;;;;10.57;5.78;;;;;;;;;;5058404;28;42799;-39
2023/06/08 11:30:33;;;;;;;9.65;6.38;;;;;;;;;;5048060;28;40952;-37
2023/06/08 11:33:01;;;;;;;12.07;6.10;;;;;;;;;;5041810;28;43650;-40
2023/06/08 11:35:29;;;;;;;8.82;6.07;;;;;;;;;;5048454;28;44237;-40
2023/06/08 11:37:59;;;;;;;10.45;5.95;;;;;;;;;;5047856;28;41304;-36
2023/06/08 11:40:27;;;;;;;8.23;5.93;;;;;;;;;;5044911;28;43289;-37
2023/06/08 11:42:56;;;;;;;11.27;5.97;;;;;;;;;;5047354;28;43576;-35
2023/06/08 11:45:24;;;;;;;7.78;5.93;;;;;;;;;;5045394;28;40673;-37
2023/06/08 11:47:54;;;;;;;9.88;6.25;;;;;;;;;;5051462;28;43185;-39
2023/06/08 11:50:46;;;;;;;11.35;5.97;;;;;;;;;;5056037;28;43563;-35
2023/06/08 11:53:16;;;;;;;11.52;6.30;;;;;;;;;;5058056;28;43621;-40
2023/06/08 11:55:46;;;;;;;11.57;6.30;;;;;;;;;;5063571;28;45120;-35
2023/06/08 11:58:14;;;;;;;8.27;5.90;;;;;;;;;;5058425;28;43399;-39
2023/06/08 12:00:42;;;;;;;16.08;6.55;;;;;;;;;;5055623;28;43688;-36
2023/06/08 12:03:12;;;;;;;10.85;5.70;;;;;;;;;;5054462;28;43565;-39
2023/06/08 12:05:43;;;;;;;10.30;5.70;;;;;;;;;;5046177;28;40738;-39
2023/06/08 12:08:14;;;;;;;13.48;6.28;;;;;;;;;;5043136;28;42558;-40
2023/06/08 12:10:43;;;;;;;11.57;5.57;;;;;;;;;;5043829;28;43696;-41
2023/06/08 12:13:11;;;;;;;9.48;5.88;;;;;;;;;;5051571;28;41164;-37
2023/06/08 12:15:40;;;;;;;6.65;5.22;;;;;;;;;;5051324;28;43202;-38
2023/06/08 12:18:11;;;;;;;8.35;6.22;;;;;;;;;;5043797;28;40663;-33
2023/06/08 12:20:39;;;;;;;8.27;6.03;;;;;;;;;;5043018;28;43207;-41
2023/06/08 12:23:07;;;;;;;6.47;5.72;;;;;;;;;;5058220;28;43785;-40
2023/06/08 12:25:35;;;;;;;10.98;6.00;;;;;;;;;;5055225;28;40402;-37
2023/06/08 12:28:04;;;;;;;11.75;5.75;;;;;;;;;;5068065;28;42966;-37
2023/06/08 12:30:32;;;;;;;10.68;5.93;;;;;;;;;;5065131;28;42987;-37
2023/06/08 12:33:00;;;;;;;8.50;5.63;;;;;;;;;;5046835;28;40970;-37
2023/06/08 12:35:29;;;;;;;6.93;5.25;;;;;;;;;;5057120;28;42409;-37
2023/06/08 12:37:57;;;;;;;9.80;5.45;;;;;;;;;;5050465;28;40650;-35
2023/06/08 12:40:26;;;;;;;9.00;5.57;;;;;;;;;;5046847;28;42715;-38
2023/06/08 12:42:53;;;;;;;9.40;5.32;;;;;;;;;;5047865;28;43644;-39
2023/06/08 12:45:21;;;;;;;7.70;5.03;;;;;;;;;;5054707;28;41388;-37
2023/06/08 12:47:49;;;;;;;9.30;5.40;;;;;;;;;;5061974;28;43360;-39
2023/06/08 12:50:19;;;;;;;7.03;5.20;;;;;;;;;;5061494;28;44098;-41
2023/06/08 12:52:49;;;;;;;9.65;4.93;;;;;;;;;;5054078;28;41034;-39
2023/06/08 12:55:17;;;;;;;8.52;5.13;;;;;;;;;;5066584;28;43743;-38
2023/06/08 12:57:45;;;;;;;8.98;5.10;;;;;;;;;;5055437;28;43550;-39
2023/06/08 13:00:13;;;;;;;7.45;5.13;;;;;;;;;;5047063;28;43424;-38
2023/06/08 13:02:41;;;;;;;8.32;4.40;;;;;;;;;;5047970;28;44372;-38
2023/06/08 13:05:09;;;;;;;7.35;4.85;;;;;;;;;;5054059;28;41183;-40
2023/06/08 13:07:37;;;;;;;6.65;4.88;;;;;;;;;;5046001;28;42855;-39
2023/06/08 13:10:07;;;;;;;7.00;4.97;;;;;;;;;;5046992;28;43200;-39
2023/06/08 13:12:36;;;;;;;6.78;4.80;;;;;;;;;;5050115;28;40579;-37
2023/06/08 13:15:04;;;;;;;7.03;5.00;;;;;;;;;;5046998;28;42601;-38
2023/06/08 13:17:33;;;;;;;8.63;5.00;;;;;;;;;;5060707;28;43856;-41
2023/06/08 13:20:02;;;;;;;7.80;4.80;;;;;;;;;;5046705;28;40759;-37
2023/06/08 13:22:31;;;;;;;9.45;5.07;;;;;;;;;;5057695;28;43929;-39
2023/06/08 13:24:59;;;;;;;8.95;4.53;;;;;;;;;;5053384;28;41316;-36
2023/06/08 13:27:28;;;;;;;12.75;5.70;;;;;;;;;;5067055;28;42727;-35
2023/06/08 13:29:56;;;;;;;12.27;5.43;;;;;;;;;;5066638;28;43335;-37
2023/06/08 13:32:24;;;;;;;7.15;5.07;;;;;;;;;;5067030;28;40797;-38
2023/06/08 13:34:52;;;;;;;8.52;5.30;;;;;;;;;;5058257;28;43319;-34
2023/06/08 13:37:20;;;;;;;5.63;5.00;;;;;;;;;;5052250;28;45009;-36
2023/06/08 13:39:48;;;;;;;10.10;5.20;;;;;;;;;;5052968;28;40873;-38
2023/06/08 13:42:16;;;;;;;9.55;5.10;;;;;;;;;;5045453;28;44099;-35
2023/06/08 13:44:50;;;;;;;8.25;4.95;;;;;;;;;;5046040;28;41346;-37
2023/06/08 13:47:18;;;;;;;7.18;5.07;;;;;;;;;;5043336;28;42359;-40
2023/06/08 13:49:46;;;;;;;7.55;5.18;;;;;;;;;;5046263;28;43704;-37
2023/06/08 13:52:15;;;;;;;7.43;4.93;;;;;;;;;;5060418;28;40623;-35
2023/06/08 13:54:43;;;;;;;9.52;5.40;;;;;;;;;;5034876;28;42257;-35
2023/06/08 13:57:11;;;;;;;8.02;5.30;;;;;;;;;;5058484;28;43393;-34
2023/06/08 13:59:39;;;;;;;7.90;5.20;;;;;;;;;;5027961;28;39551;-38
2023/06/08 14:02:08;;;;;;;8.70;5.32;;;;;;;;;;5056214;28;42588;-36
2023/06/08 14:04:36;;;;;;;7.07;4.90;;;;;;;;;;5052606;28;41159;-37
2023/06/08 14:07:04;;;;;;;5.65;5.05;;;;;;;;;;5046172;28;43338;-37
2023/06/08 14:09:32;;;;;;;7.45;5.03;;;;;;;;;;5051396;28;43300;-36
2023/06/08 14:12:00;;;;;;;7.40;4.85;;;;;;;;;;5044553;28;41519;-39
2023/06/08 14:14:28;;;;;;;5.88;4.65;;;;;;;;;;5052655;28;42876;-38
2023/06/08 14:16:56;;;;;;;7.07;4.90;;;;;;;;;;5049932;28;43406;-39
2023/06/08 14:19:25;;;;;;;8.60;5.13;;;;;;;;;;5065261;28;40728;-36
2023/06/08 14:21:53;;;;;;;6.78;4.72;;;;;;;;;;5060659;28;43542;-35
2023/06/08 14:24:21;;;;;;;7.93;5.40;;;;;;;;;;5064234;28;43774;-41
2023/06/08 14:26:49;;;;;;;8.30;5.03;;;;;;;;;;5058539;28;42450;-38
2023/06/08 14:29:17;;;;;;;8.35;4.75;;;;;;;;;;5065104;28;43924;-35
2023/06/08 14:31:45;;;;;;;5.88;4.55;;;;;;;;;;5066179;28;40101;-34
2023/06/08 14:34:13;;;;;;;8.73;5.70;;;;;;;;;;5065943;28;43657;-35
2023/06/08 14:36:45;;;;;;;6.28;5.03;;;;;;;;;;5066489;28;43617;-39
2023/06/08 14:39:13;;;;;;;6.45;4.80;;;;;;;;;;5065390;28;40124;-40
2023/06/08 14:41:41;;;;;;;7.57;5.05;;;;;;;;;;5062988;28;43422;-38
2023/06/08 14:44:09;;;;;;;7.75;5.45;;;;;;;;;;5064674;28;43292;-37
2023/06/08 14:46:37;;;;;;;6.32;5.10;;;;;;;;;;5060008;28;40596;-39
2023/06/08 14:49:05;;;;;;;8.55;5.10;;;;;;;;;;5050916;28;46201;-37
2023/06/08 14:51:33;;;;;;;6.38;4.78;;;;;;;;;;5053131;28;41189;-38